Latest Weather Observations for Laverton

IDW60801

Issued at 8:35 pm WST Friday 25 July 2014 (issued every 30 minutes, with the page automatically refreshed every 10 minutes)

About weather observations | Map of weather stations | Latest weather observations for WA | Other Formats
Station Details ID: 012305 Name: LAVERTON AERO Lat: -28.61 Lon: 122.42 Height: 464.3 m
Data from the previous 72 hours. | See also: Recent months at Laverton
Date/Time
WST
Temp
°C
App
Temp
°C
Dew
Point
Rel
Hum
%
Delta-T
°C
Wind Press
QNH
hPa
Press
MSL
hPa
Rain
since 9 am
mm
Dir
 
Spd
km/h
Gust
km/h
Spd
kts
Gust
kts
25/08:30pm 7.5 3.9 -2.0 51 3.6 N 7 9 4 5 1024.0 - 0.0
25/08:00pm 8.3 4.4 -1.8 49 3.9 NE 9 11 5 6 1023.8 1023.6 0.0
25/07:30pm 8.9 5.6 -1.5 48 4.1 NNE 6 9 3 5 1023.7 - 0.0
25/07:00pm 10.2 8.0 -1.2 45 4.6 CALM 0 0 0 0 1023.4 1023.2 0.0
25/06:30pm 12.3 8.9 -2.0 37 5.8 NW 6 6 3 3 1023.1 - 0.0
25/06:00pm 14.2 10.6 -1.8 33 6.6 NW 7 9 4 5 1022.9 1022.8 0.0
25/05:30pm 15.7 11.8 -1.8 30 7.4 NW 9 9 5 5 1022.6 - 0.0
25/05:00pm 18.1 14.2 -1.7 26 8.5 NW 9 13 5 7 1022.6 1022.5 0.0
25/04:30pm 19.1 14.5 -1.4 25 9.0 NNW 13 19 7 10 1022.6 - 0.0
25/04:00pm 19.4 15.5 -1.7 24 9.2 NNW 9 15 5 8 1022.5 1022.4 0.0
25/03:30pm 19.5 15.4 -0.5 26 8.9 N 11 15 6 8 1022.4 - 0.0
25/03:00pm 19.2 14.6 -1.3 25 8.9 NNW 13 22 7 12 1022.4 1022.3 0.0
25/02:30pm 19.1 14.3 0.2 28 8.5 N 15 22 8 12 1022.3 - 0.0
25/02:00pm 18.5 13.9 -1.3 26 8.6 N 13 20 7 11 1022.5 1022.4 0.0
25/01:30pm 18.5 14.1 0.2 29 8.2 NW 13 20 7 11 1022.7 - 0.0
25/01:00pm 18.0 14.0 0.2 30 7.9 NNW 11 15 6 8 1023.0 1022.9 0.0
25/12:30pm 18.1 13.7 0.3 30 8.0 N 13 19 7 10 1023.7 - 0.0
25/12:00pm 17.1 13.5 0.7 33 7.3 NNE 9 17 5 9 1024.1 1024.0 0.0
25/11:30am 15.9 12.7 0.5 35 6.8 SSE 7 11 4 6 1024.5 - 0.0
25/11:00am 15.9 12.1 1.6 38 6.4 ESE 11 17 6 9 1025.0 1024.9 0.0
25/10:30am 15.6 13.2 2.1 40 6.2 NE 4 9 2 5 1025.5 - 0.0
25/10:00am 15.3 12.4 2.5 42 5.8 NE 7 11 4 6 1025.8 1025.6 0.0
25/09:30am 14.3 11.5 3.2 47 5.1 E 7 13 4 7 1025.8 - 0.0
25/09:00am 12.8 11.7 5.0 59 3.7 CALM 0 0 0 0 1025.8 1025.6 0.0
25/08:30am 10.3 9.1 4.5 67 2.7 N 0 0 0 0 1025.4 - 0.0
25/08:00am 7.0 5.5 3.1 76 1.7 CALM 0 0 0 0 1025.3 1025.2 0.0
25/07:30am 3.1 1.2 0.8 85 0.9 CALM 0 6 0 3 1024.8 - 0.0
25/07:00am 1.2 -2.0 -0.4 89 0.6 E 6 7 3 4 1024.5 1024.4 0.0
25/06:30am 0.4 -3.1 -1.3 88 0.6 ENE 7 9 4 5 1024.1 - 0.0
25/06:00am 0.4 -2.9 -1.3 88 0.6 NNE 6 7 3 4 1024.1 1024.0 0.0
25/05:30am 0.5 -1.7 -1.4 87 0.7 CALM 0 0 0 0 1023.9 - 0.0
25/05:00am 1.1 -1.0 -1.1 85 0.8 CALM 0 0 0 0 1023.9 1023.7 0.0
25/04:30am 1.1 -1.0 -1.1 85 0.8 CALM 0 0 0 0 1023.6 - 0.0
25/04:00am 2.1 0.1 0.2 87 0.7 CALM 0 0 0 0 1023.2 1023.1 0.0
25/03:30am 2.6 0.3 0.5 86 0.8 E 2 6 1 3 1023.4 - 0.0
25/03:00am 2.3 -1.0 0.0 85 0.9 E 7 9 4 5 1023.0 1022.9 0.0
25/02:30am 3.0 0.8 1.1 87 0.7 E 2 7 1 4 1023.1 - 0.0
25/02:00am 2.9 -0.1 0.5 84 0.9 E 6 6 3 3 1022.9 1022.8 0.0
25/01:30am 3.7 1.9 1.3 84 1.0 CALM 0 0 0 0 1023.0 - 0.0
25/01:00am 4.1 2.3 1.3 82 1.1 CALM 0 0 0 0 1023.0 1022.9 0.0
25/12:30am 4.7 3.0 1.9 82 1.1 CALM 0 0 0 0 1022.8 - 0.0
25/12:00am 4.8 3.1 1.6 80 1.3 S 0 0 0 0 1023.0 1022.9 0.0
 
Date/Time
WST
Temp
°C
App
Temp
°C
Dew
Point
Rel
Hum
%
Delta-T
°C
Wind Press
QNH
hPa
Press
MSL
hPa
Rain
since 9 am
mm
Dir
 
Spd
km/h
Gust
km/h
Spd
kts
Gust
kts
24/11:30pm 8.7 6.1 4.1 73 2.1 S 7 9 4 5 1023.0 - 0.0
24/11:00pm 8.1 5.3 3.4 72 2.1 S 7 7 4 4 1023.0 1022.9 0.0
24/10:30pm 8.4 5.6 3.1 69 2.3 S 7 9 4 5 1022.9 - 0.0
24/10:00pm 9.7 6.7 4.3 69 2.4 S 9 13 5 7 1022.8 1022.7 0.0
24/09:30pm 9.7 6.7 4.1 68 2.5 SSW 9 11 5 6 1022.9 - 0.0
24/09:00pm 8.9 5.6 2.5 64 2.8 SSW 9 9 5 5 1022.5 1022.4 0.0
24/08:30pm 10.9 7.9 3.9 62 3.2 SSW 9 11 5 6 1022.4 - 0.0
24/08:00pm 11.7 9.1 4.2 60 3.5 SSW 7 9 4 5 1022.2 1022.0 0.0
24/07:30pm 13.2 9.5 4.4 55 4.1 SSW 13 17 7 9 1022.2 - 0.0
24/07:00pm 12.9 9.6 4.3 56 4.0 SW 11 13 6 7 1021.9 1021.7 0.0
24/06:30pm 13.1 10.1 4.0 54 4.2 SW 9 9 5 5 1021.4 - 0.0
24/06:00pm 14.0 10.9 3.8 50 4.7 SW 9 9 5 5 1020.9 1020.8 0.0
24/05:30pm 15.7 11.9 3.8 45 5.6 SW 13 17 7 9 1020.5 - 0.0
24/05:00pm 16.4 11.9 4.1 44 5.9 WSW 17 22 9 12 1020.3 1020.1 0.0
24/04:30pm 17.1 12.1 3.8 41 6.4 SW 19 24 10 13 1020.1 - 0.0
24/04:00pm 17.1 12.6 4.4 43 6.1 SSW 17 24 9 13 1020.0 1019.8 0.0
24/03:30pm 17.0 12.6 5.0 45 5.9 SW 17 24 9 13 1020.0 - 0.0
24/03:00pm 16.8 12.5 5.1 46 5.7 SW 17 24 9 13 1019.9 1019.7 0.0
24/02:30pm 17.0 12.7 5.3 46 5.8 SW 17 26 9 14 1019.9 - 0.0
24/02:00pm 16.8 13.6 5.1 46 5.7 W 11 17 6 9 1019.9 1019.7 0.0
24/01:30pm 15.9 11.8 4.6 47 5.4 SSW 15 22 8 12 1020.2 - 0.0
24/01:00pm 15.8 11.4 4.8 48 5.3 WSW 17 26 9 14 1020.6 1020.5 0.0
24/12:30pm 15.2 11.2 4.9 50 5.0 WSW 15 28 8 15 1021.1 - 0.0
24/12:00pm 14.9 11.0 5.4 53 4.6 W 15 26 8 14 1021.6 1021.4 0.0
24/11:30am 14.2 10.0 5.6 56 4.2 W 17 28 9 15 1022.3 - 0.0
24/11:00am 13.1 8.3 5.5 60 3.6 W 20 28 11 15 1022.9 1022.8 0.0
24/10:30am 12.3 8.0 5.2 62 3.4 W 17 24 9 13 1023.1 - 0.0
24/10:00am 11.3 6.9 4.7 64 3.1 WSW 17 22 9 12 1023.4 1023.2 0.0
24/09:30am 10.1 6.4 4.5 68 2.6 WSW 13 20 7 11 1023.4 - 0.0
24/09:00am 9.0 5.6 4.2 72 2.2 W 11 17 6 9 1023.1 1023.0 0.0
24/08:30am 7.6 4.4 3.1 73 2.0 WNW 9 13 5 7 1022.7 - 0.0
24/08:00am 6.4 3.3 3.4 81 1.3 NNW 9 13 5 7 1022.5 1022.4 0.0
24/07:30am 3.8 0.6 2.8 93 0.4 N 9 11 5 6 1022.1 - 0.0
24/07:00am 1.6 -1.9 1.2 97 0.2 N 9 11 5 6 1021.8 1021.6 0.0
24/06:30am 1.0 -2.6 0.6 97 0.2 N 9 13 5 7 1021.5 - 0.0
24/06:00am 1.0 -2.6 0.4 96 0.2 N 9 9 5 5 1021.4 1021.2 0.0
24/05:30am 1.3 -1.9 0.7 96 0.2 NW 7 9 4 5 1021.2 - 0.0
24/05:00am 1.9 -1.2 1.2 95 0.3 WNW 7 9 4 5 1021.1 1020.9 0.0
24/04:30am 2.3 -0.8 1.3 93 0.4 W 7 9 4 5 1020.7 - 0.0
24/04:00am 2.4 -1.5 1.2 92 0.5 W 11 11 6 6 1020.6 1020.5 0.0
24/03:30am 2.9 -0.6 1.4 90 0.6 W 9 9 5 5 1020.6 - 0.0
24/03:00am 3.6 -0.2 1.6 87 0.8 WSW 11 11 6 6 1020.6 1020.5 0.0
24/02:30am 4.2 0.8 1.9 85 0.9 W 9 11 5 6 1020.6 - 0.0
24/02:00am 5.3 2.0 2.5 82 1.2 SW 9 11 5 6 1020.5 1020.4 0.0
24/01:30am 6.0 3.2 3.0 81 1.3 SSW 7 9 4 5 1020.6 - 0.0
24/01:00am 6.5 3.3 3.1 79 1.5 SW 9 9 5 5 1020.7 1020.6 0.0
24/12:30am 7.3 4.1 3.2 75 1.8 SW 9 11 5 6 1021.1 - 0.0
24/12:00am 8.2 4.3 3.5 72 2.1 SW 13 17 7 9 1021.1 1020.9 0.0
 
Date/Time
WST
Temp
°C
App
Temp
°C
Dew
Point
Rel
Hum
%
Delta-T
°C
Wind Press
QNH
hPa
Press
MSL
hPa
Rain
since 9 am
mm
Dir
 
Spd
km/h
Gust
km/h
Spd
kts
Gust
kts
23/11:30pm 9.2 4.6 3.6 68 2.5 SW 17 24 9 13 1021.1 - 0.0
23/11:00pm 9.8 5.2 3.5 65 2.8 SW 17 24 9 13 1021.3 1021.1 0.0
23/10:30pm 10.4 4.5 4.1 65 2.9 SW 24 39 13 21 1021.4 - 0.0
23/10:00pm 10.5 5.6 4.0 64 2.9 WSW 19 24 10 13 1021.3 1021.1 0.0
23/09:30pm 9.3 6.1 3.1 65 2.7 SW 9 11 5 6 1021.1 - 0.0
23/09:00pm 10.5 7.7 3.1 60 3.3 SSW 7 13 4 7 1020.9 1020.8 0.0
23/08:30pm 10.2 7.0 3.3 62 3.1 W 9 11 5 6 1020.7 - 0.0
23/08:00pm 10.6 8.0 3.2 60 3.3 W 6 7 3 4 1020.5 1020.4 0.0
23/07:30pm 11.0 7.8 3.1 58 3.5 W 9 11 5 6 1020.6 - 0.0
23/07:00pm 10.9 7.7 3.0 58 3.5 W 9 11 5 6 1020.4 1020.3 0.0
23/06:30pm 11.2 7.6 3.0 57 3.7 W 11 13 6 7 1020.2 - 0.0
23/06:00pm 10.3 6.6 2.4 58 3.5 WNW 11 13 6 7 1020.0 1019.8 0.0
23/05:30pm 12.1 8.4 2.6 52 4.3 WSW 11 13 6 7 1019.6 - 0.0
23/05:00pm 13.2 8.4 2.7 49 4.7 WSW 17 20 9 11 1019.5 1019.3 0.0
23/04:30pm 13.8 8.7 3.0 48 4.9 WSW 19 24 10 13 1019.3 - 0.0
23/04:00pm 14.0 8.7 3.2 48 5.0 W 20 28 11 15 1019.3 1019.1 0.0
23/03:30pm 14.2 9.2 3.7 49 4.9 WSW 19 26 10 14 1019.1 - 0.0
23/03:00pm 13.9 9.3 3.7 50 4.7 WSW 17 20 9 11 1019.4 1019.2 0.0
23/02:30pm 13.1 9.3 3.7 53 4.3 WNW 13 22 7 12 1019.2 - 0.0
23/02:00pm 12.6 8.5 4.3 57 3.9 WNW 15 20 8 11 1019.1 1018.9 0.0
23/01:30pm 11.3 7.5 4.1 61 3.3 WSW 13 19 7 10 1019.4 - 0.0
23/01:00pm 10.5 7.6 4.6 67 2.7 WNW 9 13 5 7 1019.4 1019.2 0.0
23/12:30pm 10.0 6.4 5.2 72 2.2 W 13 22 7 12 1019.9 - 0.0
23/12:00pm 9.3 5.3 4.9 74 2.0 W 15 28 8 15 1020.5 1020.4 0.0
23/11:30am 8.7 4.7 5.1 78 1.7 SW 15 20 8 11 1020.8 - 0.0
23/11:00am 8.5 4.2 5.1 79 1.6 SW 17 24 9 13 1021.6 1021.4 0.0
23/10:30am 7.9 2.9 4.8 81 1.4 SW 20 26 11 14 1021.8 - 0.0
23/10:00am 7.7 2.8 5.0 83 1.2 SSW 20 28 11 15 1021.8 1021.6 0.0
23/09:30am 7.4 2.4 4.7 83 1.2 SW 20 28 11 15 1022.0 - 0.0
23/09:00am 7.2 1.5 4.7 84 1.1 SSW 24 32 13 17 1021.9 1021.7 0.2
23/08:30am 7.0 1.7 4.8 86 1.0 SSW 22 32 12 17 1021.3 - 0.2
23/08:00am 6.7 2.0 5.2 90 0.7 SW 19 28 10 15 1021.3 1021.1 0.2
23/07:30am 5.8 1.9 5.5 98 0.1 SW 15 22 8 12 1020.9 - 0.2
23/07:00am 3.4 1.2 3.1 98 0.1 NW 4 7 2 4 1020.5 1020.4 0.2
23/06:30am 2.4 -1.0 2.1 98 0.1 NNW 9 11 5 6 1020.2 - 0.2
23/06:00am 2.8 -0.1 2.4 97 0.2 NW 7 11 4 6 1019.8 1019.6 0.2
23/05:30am 3.2 0.3 2.5 95 0.3 NNW 7 9 4 5 1019.5 - 0.2
23/05:00am 2.8 0.3 1.8 93 0.4 WNW 4 7 2 4 1019.3 1019.1 0.2
23/04:30am 3.2 1.5 1.9 91 0.5 CALM 0 0 0 0 1019.2 - 0.2
23/04:00am 3.5 -0.3 2.0 90 0.6 WNW 11 13 6 7 1019.2 1019.0 0.2
23/03:30am 4.1 0.7 2.0 86 0.9 W 9 11 5 6 1019.2 - 0.2
23/03:00am 5.7 1.7 2.9 82 1.2 W 13 15 7 8 1019.3 1019.1 0.2
23/02:30am 5.4 1.8 2.8 83 1.1 W 11 13 6 7 1019.3 - 0.2
23/02:00am 5.3 1.7 2.7 83 1.1 W 11 13 6 7 1019.4 1019.2 0.2
23/01:30am 5.7 2.1 2.9 82 1.2 W 11 15 6 8 1019.6 - 0.2
23/01:00am 5.6 2.0 2.9 83 1.1 W 11 13 6 7 1019.6 1019.4 0.2
23/12:30am 6.0 2.4 3.0 81 1.3 W 11 13 6 7 1019.6 - 0.2
23/12:00am 6.9 3.0 3.3 78 1.6 W 13 17 7 9 1019.5 1019.3 0.2
 
Date/Time
WST
Temp
°C
App
Temp
°C
Dew
Point
Rel
Hum
%
Delta-T
°C
Wind Press
QNH
hPa
Press
MSL
hPa
Rain
since 9 am
mm
Dir
 
Spd
km/h
Gust
km/h
Spd
kts
Gust
kts
22/11:30pm 6.8 3.2 3.2 78 1.6 W 11 15 6 8 1019.7 - 0.2
22/11:00pm 6.6 3.1 3.4 80 1.4 W 11 13 6 7 1019.7 1019.5 0.2
22/10:30pm 7.0 3.9 3.6 79 1.5 W 9 11 5 6 1019.6 - 0.2
22/10:00pm 8.2 4.8 4.0 75 1.9 W 11 13 6 7 1019.4 1019.2 0.2
22/09:30pm 9.4 6.0 4.2 70 2.4 W 11 13 6 7 1019.2 - 0.2
22/09:00pm 10.6 6.9 4.3 65 2.9 WSW 13 19 7 10 1019.2 1019.0 0.2

Other Formats:

Comma delimited format used in spreadsheet applications
http://www.bom.gov.au/fwo/IDW60801/IDW60801.94449.axf

JavaScript Object Notation format (JSON) in row-major order
http://www.bom.gov.au/fwo/IDW60801/IDW60801.94449.json